Portada
METAR-TAF:

METAR-TAF

Aeroports :

Lismore, Austràlia

latitud: 28-49-41S, longitud: 153-15-36E, altitud: 11 m

Observació

L'informe es va fer fa 25 minuts, a les 17:00 UTC
Vent 6 kt del Nord
Temperatura 13°C
Humitat 94%
Pressió 1017 hPa
Visibilitat: 0600 m
Cel cobert a una alçada de 200 ft

METAR: YLIS 251700Z AUTO 35006KT 0600 // OVC002 13/12 Q1017

Hora: 03:25 (17:25 UTC)


TAF: manca

Observacions i pronòstics meteorològics de més de 4000 aeroports (METAR i TAF).

Les estacions disponibles són els punts grocs i vermells al mapa.

Posi el ratolí al punt desitjat per veure el nom de l'estació.

Feu clic per veure les observacions i els pronòstics meteorològics.

Per canviar el mapa: feu clic els botons verds amb una creu de color negre per apropar; al botó verd amb un guió per allunyar la imatge; o en les fletxes verdes per a mapes adjacents.


METAR-TAF: